Time;durP1;ratioP1;P1;durP2;ratioP2;P2;SDS_P1;SDS_P2;PMS_P1;PMS_P2;Temp;Humidity;BMP_temperature;BMP_pressure;BME280_temperature;BME280_humidity;BME280_pressure;Samples;Min_cycle;Max_cycle;Signal;HPM_P1;HPM_P2
2023/05/23 00:01:21;;;;;;;;;;;;;;;18.19;51.35;92567.63;2044981;70;20106;-75
2023/05/23 00:03:48;;;;;;;;;;;;;;;18.35;51.93;92572.34;2048398;70;20087;-75
2023/05/23 00:06:13;;;;;;;;;;;;;;;18.42;51.90;92576.84;2045169;70;20058;-75
2023/05/23 00:08:39;;;;;;;;;;;;;;;18.27;52.74;92576.41;2048425;70;20055;-75
2023/05/23 00:11:05;;;;;;;;;;;;;;;18.40;51.69;92576.78;2048220;70;20047;-75
2023/05/23 00:13:33;;;;;;;;;;;;;;;18.49;51.10;92576.34;2048149;70;20054;-76
2023/05/23 00:15:59;;;;;;;;;;;;;;;18.59;52.23;92575.91;2048306;70;20051;-76
2023/05/23 00:18:24;;;;;;;;;;;;;;;18.62;50.77;92583.13;2047530;70;20055;-76
2023/05/23 00:20:50;;;;;;;;;;;;;;;18.60;51.88;92576.63;2047869;70;20051;-76
2023/05/23 00:23:19;;;;;;;;;;;;;;;18.56;52.92;92574.41;2048250;70;20058;-76
2023/05/23 00:25:51;;;;;;;;;;;;;;;18.56;53.02;92576.56;2048245;70;20051;-76
2023/05/23 00:28:16;;;;;;;;;;;;;;;18.36;50.56;92570.97;2048225;70;20047;-76
2023/05/23 00:30:42;;;;;;;;;;;;;;;18.45;50.97;92567.69;2047554;70;20071;-76
2023/05/23 00:33:07;;;;;;;;;;;;;;;18.37;50.45;92564.59;2048314;70;20047;-74
2023/05/23 00:35:33;;;;;;;;;;;;;;;18.61;50.47;92575.25;2048179;70;20047;-75
2023/05/23 00:38:01;;;;;;;;;;;;;;;18.61;52.17;92573.16;2048193;70;20054;-75
2023/05/23 00:40:26;;;;;;;;;;;;;;;18.27;50.84;92579.25;2048230;70;20146;-75
2023/05/23 00:42:52;;;;;;;;;;;;;;;18.46;50.58;92577.69;2047555;70;20491;-75
2023/05/23 00:45:17;;;;;;;;;;;;;;;18.29;48.73;92575.75;2047489;70;20059;-75
2023/05/23 00:47:43;;;;;;;;;;;;;;;18.43;48.84;92573.31;2047941;70;20415;-76
2023/05/23 00:50:10;;;;;;;;;;;;;;;18.43;48.51;92572.59;2047888;70;20162;-76
2023/05/23 00:52:37;;;;;;;;;;;;;;;18.50;48.32;92579.94;2047768;70;20122;-75
2023/05/23 00:55:02;;;;;;;;;;;;;;;18.45;48.61;92572.66;2047751;70;20095;-74
2023/05/23 00:57:29;;;;;;;;;;;;;;;18.36;48.51;92585.22;2048027;70;20051;-75
2023/05/23 00:59:54;;;;;;;;;;;;;;;18.45;50.31;92572.66;2047760;70;20055;-75
2023/05/23 01:02:20;;;;;;;;;;;;;;;18.46;48.51;92569.16;2047406;70;20051;-75
2023/05/23 01:04:47;;;;;;;;;;;;;;;18.32;50.18;92573.69;2049093;70;20047;-74
2023/05/23 01:07:13;;;;;;;;;;;;;;;18.44;50.73;92571.94;2049277;70;20154;-78
2023/05/23 01:09:39;;;;;;;;;;;;;;;18.49;49.05;92564.94;2047516;70;20138;-76
2023/05/23 01:12:14;;;;;;;;;;;;;;;18.22;48.78;92566.28;2047712;70;20150;-77
2023/05/23 01:15:03;;;;;;;;;;;;;;;18.45;48.93;92561.97;2048263;70;20134;-76
2023/05/23 01:17:49;;;;;;;;;;;;;;;18.58;48.63;92563.06;2048204;70;20142;-76
2023/05/23 01:20:21;;;;;;;;;;;;;;;18.64;51.47;92563.22;2048193;70;20445;-76
2023/05/23 01:22:59;;;;;;;;;;;;;;;18.51;51.80;92555.75;2048083;70;20063;-76
2023/05/23 01:25:45;;;;;;;;;;;;;;;18.59;52.03;92561.66;2048214;70;20098;-76
2023/05/23 01:28:12;;;;;;;;;;;;;;;18.55;52.79;92572.94;2048179;70;20062;-76
2023/05/23 01:30:38;;;;;;;;;;;;;;;18.54;51.60;92571.50;2048030;70;20118;-76
2023/05/23 01:33:05;;;;;;;;;;;;;;;17.91;52.95;92570.31;2048192;70;20113;-75
2023/05/23 01:35:31;;;;;;;;;;;;;;;18.12;52.00;92576.66;2047492;70;20051;-75
2023/05/23 01:37:56;;;;;;;;;;;;;;;18.43;51.43;92566.91;2047373;70;20081;-75
2023/05/23 01:40:24;;;;;;;;;;;;;;;18.49;49.33;92561.38;2047879;70;20066;-75
2023/05/23 01:42:50;;;;;;;;;;;;;;;18.44;49.54;92568.34;2047307;70;20565;-75
2023/05/23 01:45:16;;;;;;;;;;;;;;;18.47;50.86;92569.88;2048155;70;20057;-75
2023/05/23 01:47:44;;;;;;;;;;;;;;;18.40;52.02;92568.22;2051002;70;20131;-74
2023/05/23 01:50:10;;;;;;;;;;;;;;;18.47;52.45;92567.75;2048485;70;20092;-75
2023/05/23 01:52:36;;;;;;;;;;;;;;;18.24;54.27;92566.34;2047301;70;20071;-75
2023/05/23 01:55:05;;;;;;;;;;;;;;;18.39;54.24;92563.94;2047575;70;20423;-75
2023/05/23 01:57:32;;;;;;;;;;;;;;;18.35;55.40;92555.25;2047527;70;20055;-74
2023/05/23 01:59:57;;;;;;;;;;;;;;;18.34;54.60;92559.50;2047564;70;20043;-75
2023/05/23 02:02:23;;;;;;;;;;;;;;;18.40;54.98;92560.41;2047483;70;20501;-75
2023/05/23 02:04:49;;;;;;;;;;;;;;;18.46;52.64;92565.56;2047431;70;20063;-76
2023/05/23 02:07:14;;;;;;;;;;;;;;;18.40;50.52;92559.69;2048058;70;20071;-75
2023/05/23 02:09:40;;;;;;;;;;;;;;;18.37;50.89;92558.91;2048020;70;20632;-76
2023/05/23 02:12:05;;;;;;;;;;;;;;;18.50;50.58;92557.84;2047345;70;20578;-75
2023/05/23 02:14:31;;;;;;;;;;;;;;;18.44;52.97;92563.38;2047104;70;20070;-76
2023/05/23 02:16:56;;;;;;;;;;;;;;;18.48;53.95;92560.66;2047420;70;20047;-74
2023/05/23 02:19:22;;;;;;;;;;;;;;;18.36;54.88;92556.72;2047453;70;20066;-76
2023/05/23 02:21:48;;;;;;;;;;;;;;;18.32;55.91;92551.59;2047553;70;20058;-75
2023/05/23 02:24:13;;;;;;;;;;;;;;;18.43;54.81;92549.81;2044825;70;20058;-76
2023/05/23 02:26:38;;;;;;;;;;;;;;;18.42;55.59;92556.91;2047821;70;20142;-76
2023/05/23 02:29:04;;;;;;;;;;;;;;;18.37;54.44;92561.00;2047978;70;20494;-76
2023/05/23 02:31:30;;;;;;;;;;;;;;;18.37;53.90;92564.59;2047476;70;20162;-76
2023/05/23 02:33:56;;;;;;;;;;;;;;;18.36;54.02;92565.97;2047499;70;20416;-77
2023/05/23 02:36:22;;;;;;;;;;;;;;;18.03;55.52;92564.28;2044802;70;20058;-76
2023/05/23 02:38:48;;;;;;;;;;;;;;;18.17;54.70;92564.72;2047413;70;20058;-76
2023/05/23 02:41:14;;;;;;;;;;;;;;;18.23;55.08;92562.03;2047283;70;20051;-75
2023/05/23 02:43:39;;;;;;;;;;;;;;;18.09;55.64;92569.44;2047924;70;20462;-76
2023/05/23 02:46:04;;;;;;;;;;;;;;;18.16;55.47;92566.09;2047306;70;20142;-76
2023/05/23 02:48:32;;;;;;;;;;;;;;;18.11;57.53;92566.66;2047956;70;20047;-76
2023/05/23 02:50:57;;;;;;;;;;;;;;;18.09;57.17;92563.72;2047342;70;20071;-76
2023/05/23 02:53:23;;;;;;;;;;;;;;;18.18;56.87;92565.44;2048913;70;20146;-76
2023/05/23 02:55:49;;;;;;;;;;;;;;;18.20;56.29;92571.94;2047764;70;20058;-75
2023/05/23 02:58:15;;;;;;;;;;;;;;;17.86;56.48;92570.84;2047762;70;20054;-76
2023/05/23 03:00:42;;;;;;;;;;;;;;;18.00;56.14;92582.69;2047223;70;20047;-75
2023/05/23 03:03:07;;;;;;;;;;;;;;;17.94;56.34;92579.66;2047122;70;20543;-76
2023/05/23 03:05:33;;;;;;;;;;;;;;;18.11;55.87;92587.31;2047457;70;20067;-75
2023/05/23 03:07:59;;;;;;;;;;;;;;;18.01;56.76;92587.72;2047328;70;20566;-75
2023/05/23 03:10:24;;;;;;;;;;;;;;;18.12;56.77;92590.91;2047124;70;20059;-76
2023/05/23 03:12:50;;;;;;;;;;;;;;;18.03;56.91;92584.94;2047920;70;20047;-76
2023/05/23 03:15:16;;;;;;;;;;;;;;;18.00;58.29;92586.25;2047374;70;20055;-75
2023/05/23 03:17:42;;;;;;;;;;;;;;;17.95;57.63;92587.53;2047284;70;20090;-76
2023/05/23 03:20:08;;;;;;;;;;;;;;;17.93;59.08;92586.75;2047856;70;20411;-75
2023/05/23 03:22:34;;;;;;;;;;;;;;;17.93;59.71;92589.59;2047249;70;20153;-76
2023/05/23 03:25:01;;;;;;;;;;;;;;;17.93;60.96;92589.59;2047529;70;20063;-75
2023/05/23 03:27:27;;;;;;;;;;;;;;;17.91;59.93;92583.81;2047800;70;20115;-76
2023/05/23 03:29:52;;;;;;;;;;;;;;;17.97;60.43;92592.56;2047695;70;20507;-75
2023/05/23 03:32:18;;;;;;;;;;;;;;;17.98;58.88;92594.03;2048431;70;20113;-75
2023/05/23 03:34:43;;;;;;;;;;;;;;;17.98;60.42;92596.88;2048059;70;20056;-75
2023/05/23 03:37:10;;;;;;;;;;;;;;;18.02;60.07;92603.44;2049803;70;20054;-75
2023/05/23 03:39:35;;;;;;;;;;;;;;;17.95;61.92;92598.91;2049555;70;20063;-75
2023/05/23 03:42:01;;;;;;;;;;;;;;;17.93;60.87;92604.56;2048515;70;20134;-76
2023/05/23 03:44:26;;;;;;;;;;;;;;;17.90;61.05;92616.53;2047902;70;20066;-76
2023/05/23 03:46:52;;;;;;;;;;;;;;;17.94;60.02;92608.84;2047777;70;20071;-76
2023/05/23 03:49:17;;;;;;;;;;;;;;;17.92;62.02;92623.03;2047913;70;20563;-75
2023/05/23 03:51:42;;;;;;;;;;;;;;;17.85;63.68;92609.97;2048384;70;20115;-75
2023/05/23 03:54:12;;;;;;;;;;;;;;;17.78;64.55;92616.88;2047752;70;20072;-77
2023/05/23 03:56:38;;;;;;;;;;;;;;;17.81;64.98;92621.25;2047218;70;20051;-76
2023/05/23 03:59:04;;;;;;;;;;;;;;;17.71;65.65;92626.56;2047651;70;20051;-75
2023/05/23 04:01:29;;;;;;;;;;;;;;;17.68;66.22;92625.03;2047703;70;20110;-75
2023/05/23 04:03:56;;;;;;;;;;;;;;;17.84;64.42;92624.91;2048302;70;20051;-75
2023/05/23 04:06:25;;;;;;;;;;;;;;;17.78;63.71;92625.44;2047826;70;20051;-76
2023/05/23 04:08:50;;;;;;;;;;;;;;;17.56;64.57;92636.03;2047568;70;20059;-76
2023/05/23 04:11:16;;;;;;;;;;;;;;;17.65;62.02;92632.81;2047678;70;20090;-75
2023/05/23 04:13:42;;;;;;;;;;;;;;;17.67;62.29;92630.00;2047640;70;20055;-75
2023/05/23 04:16:09;;;;;;;;;;;;;;;17.72;62.78;92637.28;2047659;70;20058;-75
2023/05/23 04:18:37;;;;;;;;;;;;;;;17.56;62.19;92633.19;2047767;70;20433;-75
2023/05/23 04:21:04;;;;;;;;;;;;;;;17.67;62.12;92632.13;2047619;70;20067;-74
2023/05/23 04:23:31;;;;;;;;;;;;;;;17.47;64.19;92624.38;2050963;70;20479;-74
2023/05/23 04:25:58;;;;;;;;;;;;;;;17.61;63.03;92623.41;2050930;70;20054;-76
2023/05/23 04:28:26;;;;;;;;;;;;;;;17.58;64.26;92621.88;2050982;70;20110;-76
2023/05/23 04:30:52;;;;;;;;;;;;;;;17.61;63.98;92626.25;2053858;70;20526;-76
2023/05/23 04:33:21;;;;;;;;;;;;;;;17.70;63.54;92625.84;2053983;70;20400;-75
2023/05/23 04:35:48;;;;;;;;;;;;;;;17.53;64.06;92635.22;2053626;70;20113;-75
2023/05/23 04:38:13;;;;;;;;;;;;;;;17.39;64.43;92632.63;2050994;70;20058;-76
2023/05/23 04:40:39;;;;;;;;;;;;;;;17.38;65.14;92641.84;2051762;70;20055;-75
2023/05/23 04:43:26;;;;;;;;;;;;;;;17.11;66.85;92643.00;2051198;70;20151;-76
2023/05/23 04:46:12;;;;;;;;;;;;;;;17.09;65.88;92643.69;2051571;69;20054;-76
2023/05/23 04:48:43;;;;;;;;;;;;;;;17.36;65.77;92644.59;2051695;70;20145;-75
2023/05/23 04:51:10;;;;;;;;;;;;;;;17.39;66.52;92655.38;2051214;70;20067;-75
2023/05/23 04:53:42;;;;;;;;;;;;;;;17.54;65.04;92662.28;2051117;70;20117;-76
2023/05/23 04:56:09;;;;;;;;;;;;;;;17.31;66.59;92657.22;2051039;69;20050;-75
2023/05/23 04:58:36;;;;;;;;;;;;;;;17.50;65.30;92657.22;2051013;70;20113;-75
2023/05/23 05:01:05;;;;;;;;;;;;;;;17.43;66.09;92657.66;2051075;70;20501;-75
2023/05/23 05:03:31;;;;;;;;;;;;;;;17.35;66.57;92669.47;2051047;70;20051;-76
2023/05/23 05:06:00;;;;;;;;;;;;;;;17.45;64.73;92680.47;2051094;70;20043;-76
2023/05/23 05:08:26;;;;;;;;;;;;;;;17.41;66.47;92678.25;2050979;70;20055;-76
2023/05/23 05:10:53;;;;;;;;;;;;;;;17.42;66.32;92682.53;2051559;70;20141;-76
2023/05/23 05:13:19;;;;;;;;;;;;;;;17.54;64.93;92682.22;2050857;69;20168;-77
2023/05/23 05:15:48;;;;;;;;;;;;;;;17.58;64.09;92681.63;2048379;70;20565;-76
2023/05/23 05:18:13;;;;;;;;;;;;;;;17.45;64.98;92691.84;2048231;70;20055;-76
2023/05/23 05:20:40;;;;;;;;;;;;;;;17.39;65.23;92695.22;2051433;69;20145;-76
2023/05/23 05:23:07;;;;;;;;;;;;;;;17.36;66.05;92695.81;2051030;70;20161;-77
2023/05/23 05:25:35;;;;;;;;;;;;;;;17.47;66.11;92692.66;2050947;70;20067;-76
2023/05/23 05:28:04;;;;;;;;;;;;;;;17.57;64.84;92697.25;2051776;70;20051;-76
2023/05/23 05:30:34;;;;;;;;;;;;;;;17.57;65.53;92705.78;2051941;70;20047;-76
2023/05/23 05:33:02;;;;;;;;;;;;;;;17.43;67.02;92697.50;2051044;70;20125;-76
2023/05/23 05:35:32;;;;;;;;;;;;;;;17.31;67.09;92697.06;2051570;69;20088;-77
2023/05/23 05:37:58;;;;;;;;;;;;;;;17.37;65.78;92700.84;2051084;70;20054;-77
2023/05/23 05:40:24;;;;;;;;;;;;;;;17.21;65.95;92703.84;2051017;70;20121;-77
2023/05/23 05:42:50;;;;;;;;;;;;;;;17.37;66.38;92711.50;2053518;70;20055;-77
2023/05/23 05:45:15;;;;;;;;;;;;;;;17.37;65.82;92694.44;2050991;70;20047;-76
2023/05/23 05:47:42;;;;;;;;;;;;;;;17.32;65.50;92702.09;2050965;70;20102;-77
2023/05/23 05:50:10;;;;;;;;;;;;;;;17.38;65.45;92693.78;2051554;70;20063;-76
2023/05/23 05:52:38;;;;;;;;;;;;;;;17.29;66.63;92697.72;2050929;70;20047;-77
2023/05/23 05:55:10;;;;;;;;;;;;;;;17.28;65.95;92691.31;2050927;69;20165;-76
2023/05/23 05:57:37;;;;;;;;;;;;;;;17.32;65.46;92687.13;2051441;70;20051;-77
2023/05/23 06:00:11;;;;;;;;;;;;;;;17.06;67.70;92696.19;2050910;69;20106;-75
2023/05/23 06:02:47;;;;;;;;;;;;;;;17.16;67.26;92695.81;2051473;70;20450;-76
2023/05/23 06:05:17;;;;;;;;;;;;;;;17.12;67.13;92692.81;2050959;70;20054;-76
2023/05/23 06:07:45;;;;;;;;;;;;;;;17.10;66.24;92695.59;2050811;70;20043;-76
2023/05/23 06:10:13;;;;;;;;;;;;;;;16.98;66.84;92695.88;2050969;70;20047;-78
2023/05/23 06:12:40;;;;;;;;;;;;;;;16.88;67.68;92699.06;2050795;70;20443;-78
2023/05/23 06:15:08;;;;;;;;;;;;;;;16.74;68.09;92702.09;2051457;70;20047;-76
2023/05/23 06:17:35;;;;;;;;;;;;;;;16.79;69.17;92708.69;2050846;70;20145;-76
2023/05/23 06:20:03;;;;;;;;;;;;;;;16.86;66.96;92703.94;2050841;70;20058;-76
2023/05/23 06:22:31;;;;;;;;;;;;;;;16.92;67.92;92707.03;2050808;70;20039;-76
2023/05/23 06:24:57;;;;;;;;;;;;;;;17.06;67.94;92698.28;2050837;70;20051;-77
2023/05/23 06:27:22;;;;;;;;;;;;;;;16.95;67.89;92708.53;2051365;70;20090;-76
2023/05/23 06:29:48;;;;;;;;;;;;;;;17.11;67.72;92717.69;2055510;70;20444;-75
2023/05/23 06:32:13;;;;;;;;;;;;;;;17.09;67.32;92719.72;2050924;70;20471;-76
2023/05/23 06:34:39;;;;;;;;;;;;;;;16.95;67.36;92717.81;2050865;70;20507;-80
2023/05/23 06:37:06;;;;;;;;;;;;;;;16.96;67.55;92721.41;2048100;70;20145;-79
2023/05/23 06:39:32;;;;;;;;;;;;;;;16.75;67.37;92722.72;2050735;70;20086;-78
2023/05/23 06:41:58;;;;;;;;;;;;;;;16.99;67.36;92722.91;2051209;70;20062;-76
2023/05/23 06:44:23;;;;;;;;;;;;;;;16.99;66.83;92731.44;2050764;70;20077;-77
2023/05/23 06:46:56;;;;;;;;;;;;;;;16.85;67.69;92731.63;2051888;70;20433;-76
2023/05/23 06:49:23;;;;;;;;;;;;;;;17.09;68.14;92729.00;2054560;69;20551;-77
2023/05/23 06:51:49;;;;;;;;;;;;;;;17.26;67.71;92733.16;2053950;70;20192;-77
2023/05/23 06:54:15;;;;;;;;;;;;;;;17.31;68.57;92736.88;2054150;70;20069;-77
2023/05/23 06:56:41;;;;;;;;;;;;;;;17.42;68.46;92738.72;2054013;70;20061;-78
2023/05/23 06:59:07;;;;;;;;;;;;;;;17.36;69.64;92742.06;2054080;70;20050;-77
2023/05/23 07:01:33;;;;;;;;;;;;;;;17.45;69.29;92746.66;2054522;69;20081;-77
2023/05/23 07:03:59;;;;;;;;;;;;;;;17.48;69.34;92750.31;2054540;70;20054;-78
2023/05/23 07:06:26;;;;;;;;;;;;;;;17.40;69.34;92747.91;2055036;69;20120;-77
2023/05/23 07:08:52;;;;;;;;;;;;;;;17.45;69.39;92752.34;2054544;70;20073;-79
2023/05/23 07:11:22;;;;;;;;;;;;;;;17.46;69.07;92753.81;2054561;69;20055;-78
2023/05/23 07:13:53;;;;;;;;;;;;;;;17.56;68.96;92755.56;2055015;70;20062;-79
2023/05/23 07:16:34;;;;;;;;;;;;;;;17.60;68.42;92752.88;2054516;70;20088;-77
2023/05/23 07:19:04;;;;;;;;;;;;;;;17.57;68.31;92748.50;2054543;70;20057;-79
2023/05/23 07:21:30;;;;;;;;;;;;;;;17.68;67.88;92748.19;2054480;70;20066;-79
2023/05/23 07:23:56;;;;;;;;;;;;;;;17.66;67.75;92745.28;2054620;70;20054;-78
2023/05/23 07:26:21;;;;;;;;;;;;;;;17.49;66.67;92748.91;2054323;70;20145;-77
2023/05/23 07:28:53;;;;;;;;;;;;;;;17.58;67.66;92738.56;2054431;70;20070;-77
2023/05/23 07:31:19;;;;;;;;;;;;;;;17.02;68.25;92747.94;2054508;70;20144;-79
2023/05/23 07:33:45;;;;;;;;;;;;;;;17.03;68.46;92745.81;2054464;70;20077;-81
2023/05/23 07:36:16;;;;;;;;;;;;;;;17.33;66.60;92740.53;2054450;70;20050;-76
2023/05/23 07:38:42;;;;;;;;;;;;;;;17.36;66.73;92744.91;2054310;70;20178;-76
2023/05/23 07:41:08;;;;;;;;;;;;;;;17.50;65.65;92750.38;2054429;70;20054;-78
2023/05/23 07:43:33;;;;;;;;;;;;;;;17.57;66.50;92742.81;2054887;69;20058;-79
2023/05/23 07:46:01;;;;;;;;;;;;;;;17.74;64.87;92747.72;2054361;70;20054;-76
2023/05/23 07:48:26;;;;;;;;;;;;;;;17.70;67.51;92753.97;2054342;70;20046;-77
2023/05/23 07:50:54;;;;;;;;;;;;;;;17.55;67.62;92754.84;2054468;69;20051;-77
2023/05/23 07:53:20;;;;;;;;;;;;;;;17.45;67.87;92757.31;2054384;70;20073;-77
2023/05/23 07:55:46;;;;;;;;;;;;;;;17.06;68.50;92755.16;2054385;70;20038;-78
2023/05/23 07:58:13;;;;;;;;;;;;;;;17.51;67.78;92755.44;2054215;70;20487;-78
2023/05/23 08:00:40;;;;;;;;;;;;;;;17.50;66.50;92753.97;2054488;70;20045;-76
2023/05/23 08:03:13;;;;;;;;;;;;;;;17.51;66.80;92749.00;2054446;70;20070;-77
2023/05/23 08:05:50;;;;;;;;;;;;;;;17.89;66.61;92746.09;2054525;70;20126;-78
2023/05/23 08:08:16;;;;;;;;;;;;;;;17.82;66.82;92747.25;2057202;69;20086;-78
2023/05/23 08:10:41;;;;;;;;;;;;;;;17.65;66.54;92746.66;2054295;70;20105;-77
2023/05/23 08:13:13;;;;;;;;;;;;;;;17.84;65.92;92745.22;2054384;70;20164;-77
2023/05/23 08:15:52;;;;;;;;;;;;;;;18.03;67.04;92747.28;2054641;70;20498;-78
2023/05/23 08:18:22;;;;;;;;;;;;;;;17.98;66.97;92748.53;2056593;70;20101;-76
2023/05/23 08:20:48;;;;;;;;;;;;;;;17.93;64.72;92754.78;2054453;70;20054;-76
2023/05/23 08:23:13;;;;;;;;;;;;;;;17.58;65.32;92747.81;2054390;70;20459;-78
2023/05/23 08:25:38;;;;;;;;;;;;;;;17.21;66.31;92748.63;2054417;70;20054;-77
2023/05/23 08:28:04;;;;;;;;;;;;;;;17.21;67.25;92755.03;2054310;70;20145;-77
2023/05/23 08:30:57;;;;;;;;;;;;;;;17.24;65.91;92750.88;2054482;69;20090;-76
2023/05/23 08:33:23;;;;;;;;;;;;;;;17.28;65.51;92742.50;2054399;70;20537;-76
2023/05/23 08:35:51;;;;;;;;;;;;;;;17.74;65.08;92745.59;2054301;70;20055;-76
2023/05/23 08:38:20;;;;;;;;;;;;;;;17.55;64.69;92749.16;2054198;69;20126;-76
2023/05/23 08:41:10;;;;;;;;;;;;;;;17.68;64.51;92739.63;2054753;70;20046;-75
2023/05/23 08:43:37;;;;;;;;;;;;;;;17.68;63.43;92747.44;2057168;69;20492;-76
2023/05/23 08:46:03;;;;;;;;;;;;;;;18.03;63.83;92749.41;2054484;70;20457;-76
2023/05/23 08:48:31;;;;;;;;;;;;;;;17.94;62.40;92751.25;2057180;69;20120;-78
2023/05/23 08:50:57;;;;;;;;;;;;;;;18.12;61.78;92753.28;2051662;70;20050;-79
2023/05/23 08:53:26;;;;;;;;;;;;;;;18.25;61.13;92752.28;2057152;69;20058;-78
2023/05/23 08:56:01;;;;;;;;;;;;;;;18.06;60.91;92750.94;2054331;70;20108;-78
2023/05/23 08:58:34;;;;;;;;;;;;;;;17.83;60.97;92754.44;2054223;69;20090;-76
2023/05/23 09:01:00;;;;;;;;;;;;;;;18.23;59.84;92755.06;2054274;70;20493;-79
2023/05/23 09:03:27;;;;;;;;;;;;;;;18.23;60.46;92749.34;2057036;69;20379;-79
2023/05/23 09:06:24;;;;;;;;;;;;;;;18.49;58.65;92747.38;2052586;69;20057;-80
2023/05/23 09:08:53;;;;;;;;;;;;;;;18.63;58.68;92752.06;2055548;69;20073;-76
2023/05/23 09:11:23;;;;;;;;;;;;;;;19.05;59.57;92744.84;2057597;69;20050;-81
2023/05/23 09:13:49;;;;;;;;;;;;;;;19.38;56.67;92734.41;2055015;69;20062;-79
2023/05/23 09:16:18;;;;;;;;;;;;;;;19.48;57.22;92746.13;2054294;70;20491;-77
2023/05/23 09:18:55;;;;;;;;;;;;;;;19.26;55.68;92754.03;2051858;70;20054;-78
2023/05/23 09:21:23;;;;;;;;;;;;;;;19.13;56.94;92737.94;2054200;70;20054;-78
2023/05/23 09:24:04;;;;;;;;;;;;;;;18.94;57.10;92743.09;2054166;69;20161;-79
2023/05/23 09:26:30;;;;;;;;;;;;;;;19.23;57.00;92736.09;2056914;69;20088;-78
2023/05/23 09:28:56;;;;;;;;;;;;;;;19.20;56.39;92737.47;2054308;70;20046;-79
2023/05/23 09:31:24;;;;;;;;;;;;;;;19.16;56.43;92740.19;2054322;70;20050;-79
2023/05/23 09:33:50;;;;;;;;;;;;;;;19.41;55.80;92738.75;2054802;69;20112;-78
2023/05/23 09:36:17;;;;;;;;;;;;;;;19.71;56.12;92727.50;2054322;70;20051;-78
2023/05/23 09:38:44;;;;;;;;;;;;;;;19.73;55.59;92727.56;2054151;70;20068;-77
2023/05/23 09:41:13;;;;;;;;;;;;;;;19.73;54.92;92718.25;2054289;70;20085;-78
2023/05/23 09:43:41;;;;;;;;;;;;;;;19.80;55.44;92720.63;2054051;70;20458;-78
2023/05/23 09:46:08;;;;;;;;;;;;;;;20.04;54.78;92723.38;2054273;70;20050;-79
2023/05/23 09:48:34;;;;;;;;;;;;;;;19.40;55.63;92717.34;2057034;69;20175;-79
2023/05/23 09:51:03;;;;;;;;;;;;;;;19.78;55.24;92719.81;2054842;69;20093;-78
2023/05/23 09:53:29;;;;;;;;;;;;;;;20.37;54.36;92712.03;2056877;69;20074;-78
2023/05/23 09:55:54;;;;;;;;;;;;;;;20.18;57.65;92714.44;2054281;70;20093;-78
2023/05/23 09:58:22;;;;;;;;;;;;;;;21.31;54.48;92723.56;2054641;70;20105;-78
2023/05/23 10:00:51;;;;;;;;;;;;;;;21.71;53.48;92711.47;2051601;70;20050;-79
2023/05/23 10:03:17;;;;;;;;;;;;;;;22.00;52.77;92713.47;2055071;69;20137;-78
2023/05/23 10:05:46;;;;;;;;;;;;;;;21.88;53.43;92709.66;2057600;69;20055;-77
2023/05/23 10:08:18;;;;;;;;;;;;;;;21.29;54.40;92717.75;2055086;69;20057;-79
2023/05/23 10:10:49;;;;;;;;;;;;;;;22.43;51.10;92710.66;2054736;69;20058;-79
2023/05/23 10:13:15;;;;;;;;;;;;;;;23.02;50.34;92709.47;2054675;69;20062;-78
2023/05/23 10:15:41;;;;;;;;;;;;;;;24.41;48.69;92701.81;2054843;69;20480;-79
2023/05/23 10:18:20;;;;;;;;;;;;;;;24.38;46.73;92703.25;2054568;69;20134;-78
2023/05/23 10:20:47;;;;;;;;;;;;;;;24.74;47.09;92691.28;2054739;69;20134;-78
2023/05/23 10:23:14;;;;;;;;;;;;;;;24.37;46.47;92690.97;2054651;69;20152;-78
2023/05/23 10:25:41;;;;;;;;;;;;;;;24.29;47.18;92685.88;2054584;69;20117;-78
2023/05/23 10:28:06;;;;;;;;;;;;;;;24.63;43.66;92684.75;2054048;70;20055;-78
2023/05/23 10:30:33;;;;;;;;;;;;;;;25.33;42.24;92683.78;2054748;69;20422;-77
2023/05/23 10:33:00;;;;;;;;;;;;;;;25.37;43.63;92682.38;2054116;70;20075;-78
2023/05/23 10:35:29;;;;;;;;;;;;;;;24.67;42.95;92678.31;2054350;70;20434;-76
2023/05/23 10:37:54;;;;;;;;;;;;;;;24.41;42.69;92681.66;2054984;69;20057;-77
2023/05/23 10:40:26;;;;;;;;;;;;;;;25.38;42.40;92670.13;2055331;69;20042;-78
2023/05/23 10:43:01;;;;;;;;;;;;;;;26.07;42.03;92673.31;2053662;69;20066;-77
2023/05/23 10:45:26;;;;;;;;;;;;;;;25.80;41.04;92674.69;2053337;69;20076;-76
2023/05/23 10:47:52;;;;;;;;;;;;;;;25.12;41.58;92664.97;2051322;70;20046;-76
2023/05/23 10:50:33;;;;;;;;;;;;;;;26.75;40.53;92656.81;2051393;70;20091;-77
2023/05/23 10:53:00;;;;;;;;;;;;;;;27.61;39.34;92653.78;2051429;69;20110;-76
2023/05/23 10:55:30;;;;;;;;;;;;;;;26.90;39.10;92653.94;2051195;70;20051;-76
2023/05/23 10:58:08;;;;;;;;;;;;;;;26.35;38.70;92652.44;2051627;70;20558;-82
2023/05/23 11:00:34;;;;;;;;;;;;;;;25.38;40.45;92661.47;2056410;70;20119;-77
2023/05/23 11:02:59;;;;;;;;;;;;;;;26.17;40.19;92657.47;2052752;70;20141;-76
2023/05/23 11:05:30;;;;;;;;;;;;;;;26.90;39.19;92657.53;2052529;69;20090;-77
2023/05/23 11:08:16;;;;;;;;;;;;;;;27.09;38.27;92652.47;2051993;70;20516;-78
2023/05/23 11:10:52;;;;;;;;;;;;;;;28.24;36.93;92650.59;2051481;70;20454;-76
2023/05/23 11:13:18;;;;;;;;;;;;;;;28.55;35.72;92659.84;2051521;69;20054;-76
2023/05/23 11:15:44;;;;;;;;;;;;;;;28.16;37.93;92656.44;2051639;70;20070;-76
2023/05/23 11:18:18;;;;;;;;;;;;;;;27.22;38.46;92658.97;2051654;69;20067;-78
2023/05/23 11:20:44;;;;;;;;;;;;;;;26.95;39.12;92661.13;2051225;70;20070;-77
2023/05/23 11:23:11;;;;;;;;;;;;;;;27.04;38.28;92651.03;2051784;70;20133;-78
2023/05/23 11:25:40;;;;;;;;;;;;;;;28.64;35.00;92651.81;2051652;70;20483;-78
2023/05/23 11:28:06;;;;;;;;;;;;;;;28.92;34.53;92650.84;2051128;70;20090;-77
2023/05/23 11:30:32;;;;;;;;;;;;;;;28.06;35.76;92647.81;2051890;70;20174;-78
2023/05/23 11:32:57;;;;;;;;;;;;;;;31.50;32.74;92645.25;2051522;69;20058;-78
2023/05/23 11:35:23;;;;;;;;;;;;;;;33.86;28.27;92644.94;2051857;70;20082;-77
2023/05/23 11:37:49;;;;;;;;;;;;;;;35.38;27.11;92648.38;2051587;70;20051;-78
2023/05/23 11:40:32;;;;;;;;;;;;;;;36.10;25.47;92649.53;2051324;70;20047;-78
2023/05/23 11:42:58;;;;;;;;;;;;;;;37.51;23.61;92640.44;2051367;70;20156;-78
2023/05/23 11:45:24;;;;;;;;;;;;;;;36.68;24.50;92642.28;2051494;69;20478;-82
2023/05/23 11:47:50;;;;;;;;;;;;;;;36.09;23.36;92639.34;2051410;70;20169;-80
2023/05/23 11:50:16;;;;;;;;;;;;;;;38.64;22.05;92640.59;2051769;70;20141;-79
2023/05/23 11:52:41;;;;;;;;;;;;;;;39.34;21.16;92634.34;2052856;69;20062;-79
2023/05/23 11:55:08;;;;;;;;;;;;;;;37.74;23.16;92631.38;2052762;70;20062;-81
2023/05/23 11:57:40;;;;;;;;;;;;;;;33.51;26.83;92610.19;2051669;70;20066;-76
2023/05/23 12:00:07;;;;;;;;;;;;;;;32.49;28.98;92604.66;2051485;70;20066;-78
2023/05/23 12:02:39;;;;;;;;;;;;;;;32.31;28.87;92599.22;2051758;70;20047;-77
2023/05/23 12:05:14;;;;;;;;;;;;;;;37.50;24.51;92601.56;2051502;70;20092;-78
2023/05/23 12:07:44;;;;;;;;;;;;;;;40.65;21.04;92610.66;2051382;70;20518;-77
2023/05/23 12:10:09;;;;;;;;;;;;;;;39.67;20.09;92606.94;2051503;70;20404;-76
2023/05/23 12:12:42;;;;;;;;;;;;;;;30.01;30.16;92581.53;2051058;70;20050;-78
2023/05/23 12:15:08;;;;;;;;;;;;;;;29.69;31.10;92579.03;2051164;70;20058;-76
2023/05/23 12:17:34;;;;;;;;;;;;;;;36.54;22.68;92584.19;2051702;70;20103;-77
2023/05/23 12:20:00;;;;;;;;;;;;;;;33.84;26.22;92577.88;2051812;70;20134;-77
2023/05/23 12:22:27;;;;;;;;;;;;;;;32.99;26.96;92569.22;2051693;70;20129;-78
2023/05/23 12:24:54;;;;;;;;;;;;;;;31.11;29.80;92568.16;2051899;70;20119;-78
2023/05/23 12:27:26;;;;;;;;;;;;;;;30.70;30.58;92573.22;2051612;70;20051;-78
2023/05/23 12:30:03;;;;;;;;;;;;;;;32.30;28.14;92560.66;2051771;70;20054;-76
2023/05/23 12:32:29;;;;;;;;;;;;;;;37.53;23.74;92575.78;2051751;70;20464;-77
2023/05/23 12:34:56;;;;;;;;;;;;;;;37.39;22.47;92574.88;2051386;70;20050;-77
2023/05/23 12:37:23;;;;;;;;;;;;;;;38.26;21.71;92575.47;2051375;70;20059;-77
2023/05/23 12:39:49;;;;;;;;;;;;;;;35.87;23.57;92569.84;2051301;70;20129;-76
2023/05/23 12:42:14;;;;;;;;;;;;;;;34.23;27.12;92571.63;2051298;70;20051;-77
2023/05/23 12:44:40;;;;;;;;;;;;;;;33.73;28.14;92556.31;2051348;70;20150;-77
2023/05/23 12:47:06;;;;;;;;;;;;;;;32.82;27.92;92557.97;2051376;70;20426;-77
2023/05/23 12:49:32;;;;;;;;;;;;;;;31.12;29.18;92557.97;2051239;70;20058;-77
2023/05/23 12:51:58;;;;;;;;;;;;;;;30.20;31.02;92560.97;2055860;70;20525;-78